createdAt,value
2019-05-14T00:02:21.237Z,116.97
2019-05-14T00:04:52.438Z,110.63
2019-05-14T00:07:24.517Z,115.08
2019-05-14T00:09:56.569Z,107.22
2019-05-14T00:12:28.546Z,112.22
2019-05-14T00:15:02.062Z,112.50
2019-05-14T00:17:34.110Z,105.52
2019-05-14T00:20:10.092Z,113.50
2019-05-14T00:22:41.810Z,104.30
2019-05-14T00:25:13.685Z,107.30
2019-05-14T00:27:45.442Z,107.27
2019-05-14T00:30:17.504Z,110.90
2019-05-14T00:32:51.898Z,105.22
2019-05-14T00:35:23.073Z,104.23
2019-05-14T00:37:55.031Z,105.60
2019-05-14T00:56:11.051Z,113.90
2019-05-14T00:58:43.901Z,114.72
2019-05-14T01:01:21.475Z,111.30
2019-05-14T01:03:53.260Z,105.85
2019-05-14T01:06:33.221Z,115.03
2019-05-14T01:09:08.739Z,106.58
2019-05-14T01:11:48.025Z,110.32
2019-05-14T01:14:51.481Z,105.07
2019-05-14T01:17:28.561Z,98.67
2019-05-14T01:20:07.411Z,105.52
2019-05-14T01:22:44.889Z,99.97
2019-05-14T01:25:33.192Z,105.55
2019-05-14T01:28:11.280Z,105.37
2019-05-14T01:33:41.121Z,101.12
2019-05-14T01:36:31.869Z,95.67
2019-05-14T01:39:07.343Z,96.42
2019-05-14T01:41:46.095Z,95.47
2019-05-14T01:44:31.856Z,95.55
2019-05-14T01:47:06.953Z,96.87
2019-05-14T01:49:44.768Z,92.15
2019-05-14T01:55:29.082Z,89.07
2019-05-14T01:58:17.486Z,88.82
2019-05-14T02:01:04.106Z,85.65
2019-05-14T02:03:47.511Z,81.55
2019-05-14T02:06:41.352Z,81.12
2019-05-14T02:09:43.042Z,87.37
2019-05-14T02:12:42.374Z,81.67
2019-05-14T02:16:12.942Z,82.60
2019-05-14T02:19:02.292Z,83.60
2019-05-14T02:21:55.171Z,80.40
2019-05-14T02:24:41.482Z,79.03
2019-05-14T02:27:36.425Z,79.67
2019-05-14T02:30:48.202Z,82.78
2019-05-14T02:33:19.272Z,77.25
2019-05-14T02:36:22.513Z,75.15
2019-05-14T02:39:00.355Z,77.72
2019-05-14T02:50:40.866Z,71.97
2019-05-14T02:53:12.641Z,74.82
2019-05-14T02:55:44.600Z,71.57
2019-05-14T02:58:20.736Z,66.45
2019-05-14T03:00:50.336Z,68.10
2019-05-14T03:03:21.960Z,65.32
2019-05-14T03:05:54.078Z,67.97
2019-05-14T03:08:25.744Z,64.30
2019-05-14T03:11:00.246Z,71.50
2019-05-14T03:13:31.723Z,69.03
2019-05-14T03:16:20.726Z,71.80
2019-05-14T03:18:39.725Z,70.97
2019-05-14T03:21:10.683Z,72.03
2019-05-14T03:23:42.213Z,67.70
2019-05-14T03:26:14.886Z,71.50
2019-05-14T03:28:49.290Z,67.00
2019-05-14T03:31:22.510Z,67.47
2019-05-14T03:33:53.576Z,67.75
2019-05-14T03:36:27.230Z,66.62
2019-05-14T03:38:59.464Z,62.17
2019-05-14T03:41:35.052Z,62.88
2019-05-14T03:44:09.826Z,61.02
2019-05-14T03:46:49.442Z,59.80
2019-05-14T03:49:14.599Z,60.20
2019-05-14T03:51:49.442Z,56.45
2019-05-14T03:54:19.786Z,62.40
2019-05-14T03:56:51.744Z,56.98
2019-05-14T03:59:23.772Z,59.27
2019-05-14T04:01:59.376Z,63.80
2019-05-14T04:04:30.315Z,57.33
2019-05-14T04:07:04.480Z,56.85
2019-05-14T04:12:09.987Z,57.40
2019-05-14T04:14:43.605Z,53.17
2019-05-14T04:17:30.863Z,54.30
2019-05-14T04:19:52.658Z,50.63
2019-05-14T04:22:24.732Z,51.10
2019-05-14T04:24:59.726Z,53.25
2019-05-14T04:27:35.029Z,54.67
2019-05-14T04:30:09.422Z,57.88
2019-05-14T04:35:12.502Z,58.52
2019-05-14T04:37:44.682Z,54.08
2019-05-14T04:40:18.907Z,53.80
2019-05-14T04:42:50.658Z,57.23
2019-05-14T04:45:22.625Z,68.35
2019-05-14T04:48:00.089Z,60.55
2019-05-14T04:50:31.157Z,60.40
2019-05-14T04:53:03.598Z,63.68
2019-05-14T04:55:35.698Z,64.27
2019-05-14T04:58:10.133Z,68.05
2019-05-14T05:00:40.949Z,72.53
2019-05-14T05:03:13.167Z,63.40
2019-05-14T05:05:45.748Z,68.55
2019-05-14T05:08:19.993Z,71.80
2019-05-14T05:10:50.730Z,77.17
2019-05-14T05:13:22.703Z,86.55
2019-05-14T05:15:54.765Z,93.00
2019-05-14T05:18:29.442Z,102.55
2019-05-14T05:21:00.279Z,104.90
2019-05-14T05:23:32.446Z,105.80
2019-05-14T05:26:04.778Z,106.80
2019-05-14T05:28:39.222Z,105.03
2019-05-14T05:31:10.535Z,106.15
2019-05-14T05:33:42.588Z,110.97
2019-05-14T05:36:18.342Z,104.77
2019-05-14T05:38:50.006Z,101.22
2019-05-14T05:41:21.670Z,99.37
2019-05-14T05:43:53.532Z,101.07
2019-05-14T05:46:25.390Z,90.12
2019-05-14T05:48:58.737Z,95.15
2019-05-14T05:51:30.524Z,102.85
2019-05-14T05:54:02.319Z,95.05
2019-05-14T05:56:34.042Z,99.72
2019-05-14T05:59:05.700Z,90.35
2019-05-14T06:01:45.771Z,83.78
2019-05-14T06:04:11.079Z,87.78
2019-05-14T06:06:42.833Z,82.57
2019-05-14T06:09:14.694Z,84.40
2019-05-14T06:11:48.779Z,74.50
2019-05-14T06:14:19.951Z,68.60
2019-05-14T06:16:52.070Z,66.30
2019-05-14T06:19:24.068Z,67.42
2019-05-14T06:21:55.921Z,55.10
2019-05-14T06:24:28.553Z,58.02
2019-05-14T06:27:00.582Z,62.23
2019-05-14T06:29:33.361Z,59.03
2019-05-14T06:32:05.233Z,62.55
2019-05-14T06:34:38.259Z,68.72
2019-05-14T06:37:10.068Z,62.27
2019-05-14T06:39:41.931Z,70.05
2019-05-14T06:42:14.701Z,75.10
2019-05-14T06:44:49.063Z,76.05
2019-05-14T06:47:20.073Z,81.95
2019-05-14T06:49:52.141Z,87.97
2019-05-14T06:52:24.623Z,91.05
2019-05-14T06:54:58.294Z,99.45
2019-05-14T06:57:29.949Z,96.82
2019-05-14T07:00:02.038Z,102.90
2019-05-14T07:02:33.696Z,106.07
2019-05-14T07:05:09.652Z,96.67
2019-05-14T07:07:41.714Z,82.62
2019-05-14T07:10:13.910Z,81.65
2019-05-14T07:12:45.637Z,75.08
2019-05-14T07:15:18.213Z,65.60
2019-05-14T07:17:50.074Z,55.20
2019-05-14T07:20:22.243Z,55.23
2019-05-14T07:22:53.999Z,46.53
2019-05-14T07:25:28.703Z,46.75
2019-05-14T07:28:00.187Z,40.50
2019-05-14T07:30:32.165Z,51.05
2019-05-14T07:33:03.779Z,45.10
2019-05-14T07:35:38.044Z,55.25
2019-05-14T07:38:09.972Z,50.92
2019-05-14T07:40:41.630Z,54.58
2019-05-14T07:43:13.472Z,51.55
2019-05-14T07:45:45.351Z,81.42
2019-05-14T07:48:18.981Z,56.42
2019-05-14T07:50:52.040Z,59.05
2019-05-14T07:53:36.107Z,64.95
2019-05-14T07:55:59.209Z,60.50
2019-05-14T07:58:30.902Z,62.98
2019-05-14T08:01:02.538Z,60.45
2019-05-14T08:03:34.602Z,46.28
2019-05-14T08:06:08.294Z,42.78
2019-05-14T08:08:40.162Z,41.92
2019-05-14T08:11:11.725Z,39.25
2019-05-14T08:13:43.595Z,35.98
2019-05-14T08:16:15.567Z,24.25
2019-05-14T08:18:48.782Z,24.85
2019-05-14T08:21:20.719Z,28.10
2019-05-14T08:23:52.675Z,16.73
2019-05-14T08:26:24.740Z,16.73
2019-05-14T08:28:58.078Z,18.30
2019-05-14T08:31:30.208Z,18.25
2019-05-14T08:34:04.903Z,17.40
2019-05-14T08:36:35.360Z,17.57
2019-05-14T08:39:08.859Z,17.95
2019-05-14T08:41:59.589Z,14.83
2019-05-14T08:44:25.897Z,18.20
2019-05-14T08:46:58.981Z,32.48
2019-05-14T08:49:42.514Z,20.43
2019-05-14T08:52:04.237Z,17.57
2019-05-14T08:54:38.878Z,20.15
2019-05-14T08:57:10.014Z,30.72
2019-05-14T08:59:43.308Z,28.77
2019-05-14T09:02:15.263Z,23.98
2019-05-14T09:04:53.701Z,17.67
2019-05-14T09:07:20.621Z,20.55
2019-05-14T09:09:52.379Z,12.20
2019-05-14T09:12:24.401Z,20.68
2019-05-14T09:14:58.705Z,19.92
2019-05-14T09:17:29.812Z,19.20
2019-05-14T09:20:06.512Z,18.92
2019-05-14T09:22:35.367Z,19.02
2019-05-14T09:25:09.316Z,13.65
2019-05-14T09:27:41.646Z,15.32
2019-05-14T09:30:13.607Z,14.05
2019-05-14T09:32:45.584Z,11.93
2019-05-14T09:35:18.820Z,13.48
2019-05-14T09:37:51.448Z,16.27
2019-05-14T09:40:24.429Z,11.80
2019-05-14T09:42:58.672Z,13.25
2019-05-14T09:48:00.915Z,13.50
2019-05-14T09:50:33.005Z,11.35
2019-05-14T09:53:04.848Z,19.60
2019-05-14T09:55:38.843Z,12.60
2019-05-14T09:58:10.123Z,12.00
2019-05-14T10:00:42.072Z,12.35
2019-05-14T10:03:14.130Z,14.00
2019-05-14T10:05:46.211Z,15.80
2019-05-14T10:08:19.356Z,17.20
2019-05-14T10:10:51.157Z,11.50
2019-05-14T10:13:23.020Z,12.03
2019-05-14T10:15:54.985Z,10.30
2019-05-14T10:18:28.520Z,10.65
2019-05-14T10:21:00.241Z,11.20
2019-05-14T10:23:32.301Z,12.85
2019-05-14T10:26:04.573Z,13.60
2019-05-14T10:28:39.467Z,12.78
2019-05-14T10:31:13.198Z,12.30
2019-05-14T10:33:43.365Z,11.28
2019-05-14T10:36:15.389Z,11.12
2019-05-14T10:38:47.052Z,11.45
2019-05-14T10:41:19.005Z,13.28
2019-05-14T10:43:50.872Z,16.37
2019-05-14T10:46:22.935Z,13.95
2019-05-14T10:48:54.890Z,13.20
2019-05-14T10:51:28.351Z,15.75
2019-05-14T10:56:31.293Z,18.20
2019-05-14T10:59:04.062Z,18.00
2019-05-14T11:01:36.134Z,17.75
2019-05-14T11:04:07.908Z,18.55
2019-05-14T11:06:39.744Z,14.10
2019-05-14T11:09:11.733Z,13.18
2019-05-14T11:11:43.687Z,10.93
2019-05-14T11:14:19.030Z,12.18
2019-05-14T11:16:49.046Z,15.10
2019-05-14T11:19:20.803Z,15.45
2019-05-14T11:24:25.027Z,10.80
2019-05-14T11:26:59.100Z,13.13
2019-05-14T11:32:02.034Z,13.85
2019-05-14T11:34:33.899Z,13.15
2019-05-14T11:37:08.368Z,17.60
2019-05-14T11:39:40.091Z,21.52
2019-05-14T11:42:11.750Z,19.60
2019-05-14T11:44:43.712Z,15.80
2019-05-14T11:47:15.569Z,17.42
2019-05-14T11:49:49.303Z,14.58
2019-05-14T11:52:21.132Z,12.60
2019-05-14T11:54:52.795Z,13.68
2019-05-14T11:57:24.862Z,14.95
2019-05-14T11:59:58.119Z,16.55
2019-05-14T12:02:30.319Z,16.87
2019-05-14T12:05:02.299Z,20.20
2019-05-14T12:07:33.839Z,19.23
2019-05-14T12:10:09.062Z,14.50
2019-05-14T12:12:42.144Z,11.65
2019-05-14T12:15:14.330Z,13.40
2019-05-14T12:17:50.598Z,14.35
2019-05-14T12:20:20.243Z,12.88
2019-05-14T12:22:52.373Z,10.65
2019-05-14T12:25:24.024Z,13.83
2019-05-14T12:27:58.734Z,9.30
2019-05-14T12:30:30.769Z,13.30
2019-05-14T12:33:02.660Z,9.48
2019-05-14T12:35:34.622Z,11.80
2019-05-14T12:38:06.616Z,10.13
2019-05-14T12:43:11.547Z,10.63
2019-05-14T12:45:43.411Z,12.30
2019-05-14T12:48:15.373Z,11.25
2019-05-14T12:50:48.907Z,8.30
2019-05-14T12:55:51.978Z,11.10
2019-05-14T12:58:23.734Z,13.48
2019-05-14T13:00:55.905Z,11.43
2019-05-14T13:03:28.495Z,18.60
2019-05-14T13:06:00.249Z,15.07
2019-05-14T13:08:32.008Z,20.17
2019-05-14T13:11:03.958Z,15.93
2019-05-14T13:13:35.595Z,12.78
2019-05-14T13:16:07.922Z,15.40
2019-05-14T13:18:39.933Z,13.78
2019-05-14T13:21:11.812Z,15.15
2019-05-14T13:23:43.859Z,9.93
2019-05-14T13:26:18.865Z,9.93
2019-05-14T13:28:51.777Z,12.58
2019-05-14T13:31:23.744Z,18.23
2019-05-14T13:33:55.416Z,17.95
2019-05-14T13:36:28.795Z,20.30
2019-05-14T13:39:00.670Z,15.68
2019-05-14T13:44:18.502Z,20.30
2019-05-14T13:46:38.922Z,21.65
2019-05-14T13:49:10.654Z,18.35
2019-05-14T13:51:42.675Z,20.15
2019-05-14T13:54:14.479Z,18.07
2019-05-14T13:56:48.376Z,18.75
2019-05-14T13:59:19.759Z,18.82
2019-05-14T14:01:54.789Z,20.37
2019-05-14T14:06:58.830Z,16.93
2019-05-14T14:12:02.234Z,18.07
2019-05-14T14:14:33.900Z,14.58
2019-05-14T14:17:06.188Z,18.32
2019-05-14T14:19:38.985Z,14.30
2019-05-14T14:22:10.799Z,24.57
2019-05-14T14:24:42.961Z,15.65
2019-05-14T14:27:15.244Z,13.40
2019-05-14T14:29:49.329Z,14.35
2019-05-14T14:34:50.959Z,14.38
2019-05-14T14:37:22.490Z,10.48
2019-05-14T14:39:54.128Z,10.40
2019-05-14T14:42:29.326Z,10.90
2019-05-14T14:45:00.198Z,10.93
2019-05-14T14:47:31.841Z,10.10
2019-05-14T14:50:04.329Z,10.68
2019-05-14T14:52:35.986Z,14.80
2019-05-14T14:55:09.182Z,16.07
2019-05-14T14:57:45.185Z,19.85
2019-05-14T15:02:45.941Z,17.12
2019-05-14T15:05:19.902Z,14.63
2019-05-14T15:07:52.887Z,15.10
2019-05-14T15:10:24.950Z,13.93
2019-05-14T15:12:58.923Z,17.37
2019-05-14T15:18:04.346Z,15.55
2019-05-14T15:20:36.876Z,12.63
2019-05-14T15:23:09.764Z,9.53
2019-05-14T15:25:42.255Z,11.60
2019-05-14T15:28:14.220Z,13.50
2019-05-14T15:30:46.177Z,14.25
2019-05-14T15:33:20.359Z,13.20
2019-05-14T15:35:52.269Z,9.58
2019-05-14T15:38:24.331Z,10.15
2019-05-14T15:40:56.390Z,12.25
2019-05-14T15:43:28.646Z,6.80
2019-05-14T15:46:00.412Z,6.93
2019-05-14T15:48:32.568Z,10.78
2019-05-14T15:51:04.960Z,10.68
2019-05-14T15:53:38.610Z,9.45
2019-05-14T15:56:10.627Z,9.00
2019-05-14T15:58:42.619Z,13.13
2019-05-14T16:01:14.334Z,10.50
2019-05-14T16:03:48.103Z,9.78
2019-05-14T16:08:50.956Z,9.50
2019-05-14T16:11:22.600Z,8.08
2019-05-14T16:13:54.649Z,11.88
2019-05-14T16:16:28.718Z,9.75
2019-05-14T16:18:59.826Z,12.93
2019-05-14T16:21:31.888Z,16.32
2019-05-14T16:24:03.626Z,10.35
2019-05-14T16:26:37.766Z,9.38
2019-05-14T16:29:10.947Z,10.00
2019-05-14T16:31:43.703Z,9.00
2019-05-14T16:34:18.001Z,9.78
2019-05-14T16:36:49.208Z,9.78
2019-05-14T16:39:20.956Z,9.45
2019-05-14T16:41:52.709Z,13.45
2019-05-14T16:44:24.681Z,10.75
2019-05-14T16:46:58.591Z,11.33
2019-05-14T16:49:33.957Z,10.88
2019-05-14T16:52:03.026Z,14.10
2019-05-14T16:54:34.961Z,12.30
2019-05-14T16:57:11.138Z,13.55
2019-05-14T16:59:40.350Z,18.40
2019-05-14T17:02:12.306Z,13.72
2019-05-14T17:04:44.268Z,14.20
2019-05-14T17:07:19.304Z,15.03
2019-05-14T17:09:51.360Z,13.62
2019-05-14T17:12:23.344Z,15.72
2019-05-14T17:14:55.395Z,18.70
2019-05-14T17:17:29.357Z,19.87
2019-05-14T17:20:01.162Z,19.45
2019-05-14T17:22:34.092Z,44.93
2019-05-14T17:25:09.052Z,26.95
2019-05-14T17:27:40.341Z,25.85
2019-05-14T17:30:12.289Z,22.37
2019-05-14T17:32:44.152Z,17.82
2019-05-14T17:35:19.551Z,18.25
2019-05-14T17:37:54.110Z,27.52
2019-05-14T17:40:26.174Z,27.20
2019-05-14T17:42:59.316Z,25.77
2019-05-14T17:45:31.244Z,25.02
2019-05-14T17:48:06.069Z,27.58
2019-05-14T17:50:38.536Z,24.45
2019-05-14T17:53:10.302Z,25.82
2019-05-14T17:55:46.638Z,22.60
2019-05-14T17:58:18.595Z,25.55
2019-05-14T18:00:49.058Z,33.42
2019-05-14T18:03:23.897Z,29.30
2019-05-14T18:05:59.117Z,29.45
2019-05-14T18:08:31.923Z,25.62
2019-05-14T18:11:03.647Z,27.75
2019-05-14T18:13:35.317Z,29.80
2019-05-14T18:16:13.322Z,28.40
2019-05-14T18:18:49.291Z,32.53
2019-05-14T18:21:22.884Z,33.83
2019-05-14T18:24:04.797Z,39.70
2019-05-14T18:26:38.523Z,32.55
2019-05-14T18:29:09.996Z,35.70
2019-05-14T18:31:44.897Z,32.83
2019-05-14T18:34:22.379Z,39.23
2019-05-14T18:36:53.998Z,34.73
2019-05-14T18:39:28.333Z,35.50
2019-05-14T18:42:02.339Z,34.43
2019-05-14T18:44:34.344Z,37.78
2019-05-14T18:47:11.440Z,32.05
2019-05-14T18:49:43.556Z,32.53
2019-05-14T18:52:15.300Z,38.17
2019-05-14T18:54:49.460Z,36.28
2019-05-14T18:57:22.810Z,40.30
2019-05-14T18:59:55.638Z,39.48
2019-05-14T19:02:30.205Z,38.00
2019-05-14T19:05:03.904Z,35.78
2019-05-14T19:07:38.692Z,33.92
2019-05-14T19:10:10.424Z,35.80
2019-05-14T19:12:42.496Z,35.25
2019-05-14T19:15:18.525Z,35.63
2019-05-14T19:17:53.304Z,39.42
2019-05-14T19:20:28.367Z,35.55
2019-05-14T19:23:00.479Z,36.53
2019-05-14T19:25:32.424Z,34.03
2019-05-14T19:28:04.104Z,35.45
2019-05-14T19:30:38.180Z,39.05
2019-05-14T19:33:09.751Z,33.08
2019-05-14T19:35:42.860Z,41.02
2019-05-14T19:38:18.280Z,40.38
2019-05-14T19:40:50.240Z,37.55
2019-05-14T19:43:22.019Z,39.20
2019-05-14T19:45:54.067Z,44.67
2019-05-14T19:48:26.157Z,43.00
2019-05-14T19:50:58.494Z,50.75
2019-05-14T19:53:31.406Z,50.57
2019-05-14T19:56:03.166Z,47.85
2019-05-14T19:58:35.237Z,54.08
2019-05-14T20:01:09.240Z,54.23
2019-05-14T20:03:41.289Z,48.95
2019-05-14T20:06:18.485Z,48.42
2019-05-14T20:08:49.527Z,47.73
2019-05-14T20:11:25.772Z,43.90
2019-05-14T20:13:58.945Z,45.05
2019-05-14T20:16:30.006Z,51.98
2019-05-14T20:19:01.867Z,50.52
2019-05-14T20:21:33.728Z,50.28
2019-05-14T20:24:05.704Z,45.98
2019-05-14T20:26:39.034Z,47.88
2019-05-14T20:29:10.847Z,45.40
2019-05-14T20:31:43.031Z,40.63
2019-05-14T20:34:19.077Z,45.80
2019-05-14T20:36:49.171Z,41.85
2019-05-14T20:39:21.076Z,42.95
2019-05-14T20:41:53.129Z,46.90
2019-05-14T20:44:24.773Z,42.23
2019-05-14T20:46:58.324Z,44.67
2019-05-14T20:49:30.038Z,46.13
2019-05-14T20:52:02.196Z,49.10
2019-05-14T20:54:33.872Z,48.00
2019-05-14T20:57:19.724Z,43.45
2019-05-14T20:59:39.513Z,41.83
2019-05-14T21:02:11.735Z,45.95
2019-05-14T21:04:43.779Z,46.92
2019-05-14T21:07:15.608Z,53.55
2019-05-14T21:09:49.416Z,54.00
2019-05-14T21:12:21.507Z,47.88
2019-05-14T21:14:54.148Z,57.55
2019-05-14T21:17:28.251Z,57.48
2019-05-14T21:20:00.160Z,51.85
2019-05-14T21:22:32.138Z,49.95
2019-05-14T21:25:04.371Z,47.80
2019-05-14T21:27:43.852Z,45.10
2019-05-14T21:30:11.699Z,47.15
2019-05-14T21:32:43.460Z,43.75
2019-05-14T21:35:15.628Z,48.35
2019-05-14T21:37:48.141Z,52.38
2019-05-14T21:40:21.156Z,55.88
2019-05-14T21:42:52.943Z,53.35
2019-05-14T21:45:24.803Z,47.70
2019-05-14T21:47:59.254Z,44.05
2019-05-14T21:50:30.171Z,53.28
2019-05-14T21:53:02.120Z,50.38
2019-05-14T21:55:34.270Z,41.13
2019-05-14T21:58:09.032Z,43.63
2019-05-14T22:00:59.325Z,52.75
2019-05-14T22:03:32.607Z,59.03
2019-05-14T22:06:04.884Z,53.17
2019-05-14T22:08:39.288Z,48.13
2019-05-14T22:11:10.749Z,52.13
2019-05-14T22:13:42.885Z,55.98
2019-05-14T22:16:14.643Z,52.62
2019-05-14T22:18:48.377Z,50.55
2019-05-14T22:21:20.340Z,47.17
2019-05-14T22:23:53.195Z,48.20
2019-05-14T22:26:25.501Z,46.68
2019-05-14T22:28:58.680Z,43.60
2019-05-14T22:31:30.646Z,43.10
2019-05-14T22:34:02.709Z,43.60
2019-05-14T22:36:34.568Z,44.13
2019-05-14T22:39:06.821Z,39.35
2019-05-14T22:41:38.704Z,41.53
2019-05-14T22:44:11.730Z,49.13
2019-05-14T22:46:43.856Z,45.80
2019-05-14T22:49:15.781Z,38.33
2019-05-14T22:51:49.271Z,40.10
2019-05-14T22:54:22.300Z,42.17
2019-05-14T22:56:54.537Z,43.05
2019-05-14T22:59:28.359Z,43.20
2019-05-14T23:01:59.729Z,45.40
2019-05-14T23:04:31.587Z,45.43
2019-05-14T23:07:03.682Z,45.08
2019-05-14T23:09:35.521Z,43.40
2019-05-14T23:12:12.098Z,39.10
2019-05-14T23:14:40.840Z,38.25
2019-05-14T23:17:13.142Z,46.00
2019-05-14T23:19:44.905Z,47.40
2019-05-14T23:22:18.544Z,47.48
2019-05-14T23:24:49.919Z,45.33
2019-05-14T23:27:21.479Z,47.17
2019-05-14T23:29:53.567Z,56.08
2019-05-14T23:32:25.535Z,48.87
2019-05-14T23:34:58.440Z,54.08
2019-05-14T23:40:03.409Z,65.55
2019-05-14T23:42:35.789Z,65.47
2019-05-14T23:45:09.090Z,66.55
2019-05-14T23:47:40.892Z,63.58
2019-05-14T23:50:13.312Z,65.08
2019-05-14T23:52:45.027Z,70.32
2019-05-14T23:55:18.051Z,64.22
2019-05-14T23:57:50.604Z,63.20
